sensor_id;sensor_type;location;lat;lon;timestamp;P1;durP1;ratioP1;P2;durP2;ratioP2
29384;SDS011;16367;48.736;9.218;2023-05-18T00:01:53;7.63;;;3.25;;
29384;SDS011;16367;48.736;9.218;2023-05-18T00:03:56;10.55;;;3.88;;
29384;SDS011;16367;48.736;9.218;2023-05-18T00:05:59;13.00;;;4.68;;
29384;SDS011;16367;48.736;9.218;2023-05-18T00:08:04;10.77;;;4.60;;
29384;SDS011;16367;48.736;9.218;2023-05-18T00:10:10;12.00;;;5.22;;
29384;SDS011;16367;48.736;9.218;2023-05-18T00:12:12;11.30;;;5.00;;
29384;SDS011;16367;48.736;9.218;2023-05-18T00:14:17;10.98;;;5.25;;
29384;SDS011;16367;48.736;9.218;2023-05-18T00:16:20;11.80;;;5.05;;
29384;SDS011;16367;48.736;9.218;2023-05-18T00:18:22;13.93;;;4.97;;
29384;SDS011;16367;48.736;9.218;2023-05-18T00:20:26;13.73;;;5.00;;
29384;SDS011;16367;48.736;9.218;2023-05-18T00:22:30;9.57;;;4.60;;
29384;SDS011;16367;48.736;9.218;2023-05-18T00:24:33;11.07;;;5.43;;
29384;SDS011;16367;48.736;9.218;2023-05-18T00:26:37;10.93;;;4.90;;
29384;SDS011;16367;48.736;9.218;2023-05-18T00:28:40;11.52;;;5.22;;
29384;SDS011;16367;48.736;9.218;2023-05-18T00:30:44;13.95;;;5.97;;
29384;SDS011;16367;48.736;9.218;2023-05-18T00:32:47;13.68;;;5.18;;
29384;SDS011;16367;48.736;9.218;2023-05-18T00:34:50;10.27;;;5.05;;
29384;SDS011;16367;48.736;9.218;2023-05-18T00:36:53;14.45;;;5.00;;
29384;SDS011;16367;48.736;9.218;2023-05-18T00:38:55;14.43;;;5.60;;
29384;SDS011;16367;48.736;9.218;2023-05-18T00:40:58;12.57;;;5.18;;
29384;SDS011;16367;48.736;9.218;2023-05-18T00:43:01;13.32;;;5.10;;
29384;SDS011;16367;48.736;9.218;2023-05-18T00:45:04;9.93;;;5.13;;
29384;SDS011;16367;48.736;9.218;2023-05-18T00:47:09;10.15;;;4.50;;
29384;SDS011;16367;48.736;9.218;2023-05-18T00:49:12;12.88;;;4.97;;
29384;SDS011;16367;48.736;9.218;2023-05-18T00:51:15;15.50;;;5.47;;
29384;SDS011;16367;48.736;9.218;2023-05-18T00:53:19;9.30;;;4.57;;
29384;SDS011;16367;48.736;9.218;2023-05-18T00:55:21;10.20;;;5.15;;
29384;SDS011;16367;48.736;9.218;2023-05-18T00:57:24;10.20;;;5.05;;
29384;SDS011;16367;48.736;9.218;2023-05-18T00:59:28;13.00;;;4.95;;
29384;SDS011;16367;48.736;9.218;2023-05-18T01:01:33;9.30;;;4.53;;
29384;SDS011;16367;48.736;9.218;2023-05-18T01:03:38;12.70;;;4.88;;
29384;SDS011;16367;48.736;9.218;2023-05-18T01:05:43;16.10;;;5.30;;
29384;SDS011;16367;48.736;9.218;2023-05-18T01:07:46;12.57;;;5.32;;
29384;SDS011;16367;48.736;9.218;2023-05-18T01:09:50;9.60;;;4.20;;
29384;SDS011;16367;48.736;9.218;2023-05-18T01:11:55;15.93;;;5.80;;
29384;SDS011;16367;48.736;9.218;2023-05-18T01:14:08;13.48;;;5.40;;
29384;SDS011;16367;48.736;9.218;2023-05-18T01:16:38;11.70;;;4.97;;
29384;SDS011;16367;48.736;9.218;2023-05-18T01:18:49;11.50;;;4.55;;
29384;SDS011;16367;48.736;9.218;2023-05-18T01:21:04;8.52;;;4.53;;
29384;SDS011;16367;48.736;9.218;2023-05-18T01:23:28;11.65;;;5.35;;
29384;SDS011;16367;48.736;9.218;2023-05-18T01:25:49;10.95;;;4.13;;
29384;SDS011;16367;48.736;9.218;2023-05-18T01:28:02;11.05;;;4.80;;
29384;SDS011;16367;48.736;9.218;2023-05-18T01:30:10;13.10;;;5.20;;
29384;SDS011;16367;48.736;9.218;2023-05-18T01:32:16;10.95;;;5.20;;
29384;SDS011;16367;48.736;9.218;2023-05-18T01:34:19;10.45;;;4.90;;
29384;SDS011;16367;48.736;9.218;2023-05-18T01:36:22;10.15;;;4.50;;
29384;SDS011;16367;48.736;9.218;2023-05-18T01:38:25;10.38;;;4.47;;
29384;SDS011;16367;48.736;9.218;2023-05-18T01:40:29;11.88;;;4.80;;
29384;SDS011;16367;48.736;9.218;2023-05-18T01:42:38;11.15;;;4.93;;
29384;SDS011;16367;48.736;9.218;2023-05-18T01:44:47;11.40;;;5.40;;
29384;SDS011;16367;48.736;9.218;2023-05-18T01:46:55;10.32;;;4.50;;
29384;SDS011;16367;48.736;9.218;2023-05-18T01:49:05;9.27;;;4.60;;
29384;SDS011;16367;48.736;9.218;2023-05-18T01:51:12;12.00;;;4.60;;
29384;SDS011;16367;48.736;9.218;2023-05-18T01:53:20;10.02;;;4.88;;
29384;SDS011;16367;48.736;9.218;2023-05-18T01:55:26;14.55;;;4.78;;
29384;SDS011;16367;48.736;9.218;2023-05-18T01:57:32;9.52;;;4.20;;
29384;SDS011;16367;48.736;9.218;2023-05-18T01:59:38;11.55;;;4.35;;
29384;SDS011;16367;48.736;9.218;2023-05-18T02:01:42;11.90;;;4.75;;
29384;SDS011;16367;48.736;9.218;2023-05-18T02:03:45;11.68;;;4.28;;
29384;SDS011;16367;48.736;9.218;2023-05-18T02:05:48;11.43;;;4.72;;
29384;SDS011;16367;48.736;9.218;2023-05-18T02:07:51;12.15;;;5.40;;
29384;SDS011;16367;48.736;9.218;2023-05-18T02:09:53;12.63;;;5.57;;
29384;SDS011;16367;48.736;9.218;2023-05-18T02:11:56;10.95;;;4.70;;
29384;SDS011;16367;48.736;9.218;2023-05-18T02:13:59;10.65;;;4.45;;
29384;SDS011;16367;48.736;9.218;2023-05-18T02:16:03;10.50;;;5.13;;
29384;SDS011;16367;48.736;9.218;2023-05-18T02:18:06;12.80;;;4.70;;
29384;SDS011;16367;48.736;9.218;2023-05-18T02:20:09;9.23;;;4.07;;
29384;SDS011;16367;48.736;9.218;2023-05-18T02:22:12;12.25;;;5.55;;
29384;SDS011;16367;48.736;9.218;2023-05-18T02:24:15;9.82;;;4.13;;
29384;SDS011;16367;48.736;9.218;2023-05-18T02:26:18;10.55;;;4.70;;
29384;SDS011;16367;48.736;9.218;2023-05-18T02:28:21;9.02;;;4.05;;
29384;SDS011;16367;48.736;9.218;2023-05-18T02:30:24;13.23;;;5.97;;
29384;SDS011;16367;48.736;9.218;2023-05-18T02:32:28;9.85;;;3.53;;
29384;SDS011;16367;48.736;9.218;2023-05-18T02:34:32;9.73;;;4.18;;
29384;SDS011;16367;48.736;9.218;2023-05-18T02:36:38;9.40;;;4.15;;
29384;SDS011;16367;48.736;9.218;2023-05-18T02:38:42;7.90;;;3.83;;
29384;SDS011;16367;48.736;9.218;2023-05-18T02:40:45;13.85;;;4.88;;
29384;SDS011;16367;48.736;9.218;2023-05-18T02:42:49;9.73;;;3.83;;
29384;SDS011;16367;48.736;9.218;2023-05-18T02:44:52;12.50;;;3.90;;
29384;SDS011;16367;48.736;9.218;2023-05-18T02:46:56;8.52;;;4.25;;
29384;SDS011;16367;48.736;9.218;2023-05-18T02:49:00;7.88;;;3.88;;
29384;SDS011;16367;48.736;9.218;2023-05-18T02:51:03;10.90;;;4.03;;
29384;SDS011;16367;48.736;9.218;2023-05-18T02:53:06;10.48;;;4.28;;
29384;SDS011;16367;48.736;9.218;2023-05-18T02:55:09;10.20;;;4.18;;
29384;SDS011;16367;48.736;9.218;2023-05-18T02:57:14;7.70;;;3.80;;
29384;SDS011;16367;48.736;9.218;2023-05-18T02:59:17;10.27;;;3.97;;
29384;SDS011;16367;48.736;9.218;2023-05-18T03:01:19;8.82;;;3.90;;
29384;SDS011;16367;48.736;9.218;2023-05-18T03:03:22;11.93;;;4.07;;
29384;SDS011;16367;48.736;9.218;2023-05-18T03:05:27;10.75;;;3.67;;
29384;SDS011;16367;48.736;9.218;2023-05-18T03:07:30;11.70;;;4.43;;
29384;SDS011;16367;48.736;9.218;2023-05-18T03:09:33;8.85;;;4.07;;
29384;SDS011;16367;48.736;9.218;2023-05-18T03:11:36;9.70;;;3.90;;
29384;SDS011;16367;48.736;9.218;2023-05-18T03:13:38;12.40;;;4.70;;
29384;SDS011;16367;48.736;9.218;2023-05-18T03:15:41;10.05;;;4.38;;
29384;SDS011;16367;48.736;9.218;2023-05-18T03:17:45;8.75;;;3.72;;
29384;SDS011;16367;48.736;9.218;2023-05-18T03:19:49;11.48;;;4.70;;
29384;SDS011;16367;48.736;9.218;2023-05-18T03:21:54;13.75;;;4.50;;
29384;SDS011;16367;48.736;9.218;2023-05-18T03:23:58;10.10;;;4.43;;
29384;SDS011;16367;48.736;9.218;2023-05-18T03:26:00;13.73;;;4.57;;
29384;SDS011;16367;48.736;9.218;2023-05-18T03:28:04;13.48;;;4.65;;
29384;SDS011;16367;48.736;9.218;2023-05-18T03:30:07;15.85;;;4.95;;
29384;SDS011;16367;48.736;9.218;2023-05-18T03:32:10;9.15;;;4.43;;
29384;SDS011;16367;48.736;9.218;2023-05-18T03:34:13;12.52;;;4.70;;
29384;SDS011;16367;48.736;9.218;2023-05-18T03:36:16;10.90;;;4.45;;
29384;SDS011;16367;48.736;9.218;2023-05-18T03:38:20;11.13;;;4.22;;
29384;SDS011;16367;48.736;9.218;2023-05-18T03:40:23;10.63;;;4.20;;
29384;SDS011;16367;48.736;9.218;2023-05-18T03:42:26;13.15;;;4.65;;
29384;SDS011;16367;48.736;9.218;2023-05-18T03:44:29;10.90;;;4.72;;
29384;SDS011;16367;48.736;9.218;2023-05-18T03:46:32;8.43;;;4.10;;
29384;SDS011;16367;48.736;9.218;2023-05-18T03:48:34;11.75;;;4.25;;
29384;SDS011;16367;48.736;9.218;2023-05-18T03:50:37;9.15;;;3.80;;
29384;SDS011;16367;48.736;9.218;2023-05-18T03:52:41;11.57;;;4.13;;
29384;SDS011;16367;48.736;9.218;2023-05-18T03:54:46;12.00;;;4.00;;
29384;SDS011;16367;48.736;9.218;2023-05-18T03:56:49;9.88;;;4.25;;
29384;SDS011;16367;48.736;9.218;2023-05-18T03:58:52;12.45;;;4.10;;
29384;SDS011;16367;48.736;9.218;2023-05-18T04:00:55;15.38;;;6.03;;
29384;SDS011;16367;48.736;9.218;2023-05-18T04:02:58;7.82;;;3.60;;
29384;SDS011;16367;48.736;9.218;2023-05-18T04:05:04;9.55;;;3.85;;
29384;SDS011;16367;48.736;9.218;2023-05-18T04:07:07;8.93;;;3.72;;
29384;SDS011;16367;48.736;9.218;2023-05-18T04:09:10;11.75;;;4.25;;
29384;SDS011;16367;48.736;9.218;2023-05-18T04:11:16;9.82;;;4.45;;
29384;SDS011;16367;48.736;9.218;2023-05-18T04:13:19;9.18;;;4.00;;
29384;SDS011;16367;48.736;9.218;2023-05-18T04:15:22;10.00;;;3.80;;
29384;SDS011;16367;48.736;9.218;2023-05-18T04:17:24;9.75;;;3.88;;
29384;SDS011;16367;48.736;9.218;2023-05-18T04:19:27;8.25;;;4.22;;
29384;SDS011;16367;48.736;9.218;2023-05-18T04:21:30;8.00;;;4.30;;
29384;SDS011;16367;48.736;9.218;2023-05-18T04:23:35;10.68;;;3.80;;
29384;SDS011;16367;48.736;9.218;2023-05-18T04:25:39;10.65;;;4.00;;
29384;SDS011;16367;48.736;9.218;2023-05-18T04:27:43;11.55;;;3.65;;
29384;SDS011;16367;48.736;9.218;2023-05-18T04:29:46;9.88;;;4.00;;
29384;SDS011;16367;48.736;9.218;2023-05-18T04:31:49;7.28;;;3.30;;
29384;SDS011;16367;48.736;9.218;2023-05-18T04:33:53;9.82;;;3.67;;
29384;SDS011;16367;48.736;9.218;2023-05-18T04:35:57;10.43;;;3.50;;
29384;SDS011;16367;48.736;9.218;2023-05-18T04:38:05;6.57;;;3.30;;
29384;SDS011;16367;48.736;9.218;2023-05-18T04:40:34;9.77;;;3.78;;
29384;SDS011;16367;48.736;9.218;2023-05-18T04:42:38;8.98;;;3.35;;
29384;SDS011;16367;48.736;9.218;2023-05-18T04:44:47;12.18;;;3.60;;
29384;SDS011;16367;48.736;9.218;2023-05-18T04:46:52;9.10;;;3.38;;
29384;SDS011;16367;48.736;9.218;2023-05-18T04:48:55;9.40;;;3.50;;
29384;SDS011;16367;48.736;9.218;2023-05-18T04:50:59;8.73;;;3.35;;
29384;SDS011;16367;48.736;9.218;2023-05-18T04:53:01;7.60;;;3.35;;
29384;SDS011;16367;48.736;9.218;2023-05-18T04:55:06;12.15;;;3.85;;
29384;SDS011;16367;48.736;9.218;2023-05-18T04:57:11;8.00;;;3.00;;
29384;SDS011;16367;48.736;9.218;2023-05-18T04:59:14;9.35;;;3.25;;
29384;SDS011;16367;48.736;9.218;2023-05-18T05:01:18;10.10;;;3.65;;
29384;SDS011;16367;48.736;9.218;2023-05-18T05:03:21;7.97;;;3.10;;
29384;SDS011;16367;48.736;9.218;2023-05-18T05:05:24;10.70;;;3.20;;
29384;SDS011;16367;48.736;9.218;2023-05-18T05:07:27;6.72;;;2.83;;
29384;SDS011;16367;48.736;9.218;2023-05-18T05:09:30;7.45;;;2.97;;
29384;SDS011;16367;48.736;9.218;2023-05-18T05:11:33;8.88;;;3.30;;
29384;SDS011;16367;48.736;9.218;2023-05-18T05:13:36;7.97;;;2.70;;
29384;SDS011;16367;48.736;9.218;2023-05-18T05:15:38;7.57;;;3.00;;
29384;SDS011;16367;48.736;9.218;2023-05-18T05:17:42;6.47;;;3.33;;
29384;SDS011;16367;48.736;9.218;2023-05-18T05:19:45;9.30;;;3.47;;
29384;SDS011;16367;48.736;9.218;2023-05-18T05:21:48;9.68;;;3.08;;
29384;SDS011;16367;48.736;9.218;2023-05-18T05:23:51;7.00;;;2.58;;
29384;SDS011;16367;48.736;9.218;2023-05-18T05:25:54;11.77;;;4.20;;
29384;SDS011;16367;48.736;9.218;2023-05-18T05:27:56;7.10;;;3.00;;
29384;SDS011;16367;48.736;9.218;2023-05-18T05:29:59;9.70;;;3.08;;
29384;SDS011;16367;48.736;9.218;2023-05-18T05:32:02;7.57;;;2.95;;
29384;SDS011;16367;48.736;9.218;2023-05-18T05:34:06;8.70;;;3.03;;
29384;SDS011;16367;48.736;9.218;2023-05-18T05:36:11;7.63;;;2.90;;
29384;SDS011;16367;48.736;9.218;2023-05-18T05:38:14;8.18;;;3.00;;
29384;SDS011;16367;48.736;9.218;2023-05-18T05:40:17;11.80;;;3.20;;
29384;SDS011;16367;48.736;9.218;2023-05-18T05:42:20;10.30;;;2.92;;
29384;SDS011;16367;48.736;9.218;2023-05-18T05:44:23;8.35;;;2.92;;
29384;SDS011;16367;48.736;9.218;2023-05-18T05:46:25;10.23;;;2.80;;
29384;SDS011;16367;48.736;9.218;2023-05-18T05:48:28;7.22;;;2.70;;
29384;SDS011;16367;48.736;9.218;2023-05-18T05:50:32;7.63;;;2.80;;
29384;SDS011;16367;48.736;9.218;2023-05-18T05:52:35;9.93;;;2.85;;
29384;SDS011;16367;48.736;9.218;2023-05-18T05:54:38;8.15;;;3.25;;
29384;SDS011;16367;48.736;9.218;2023-05-18T05:56:42;9.00;;;3.30;;
29384;SDS011;16367;48.736;9.218;2023-05-18T05:58:44;7.95;;;3.10;;
29384;SDS011;16367;48.736;9.218;2023-05-18T06:00:47;7.35;;;2.65;;
29384;SDS011;16367;48.736;9.218;2023-05-18T06:02:51;7.20;;;2.90;;
29384;SDS011;16367;48.736;9.218;2023-05-18T06:04:53;8.43;;;2.92;;
29384;SDS011;16367;48.736;9.218;2023-05-18T06:06:57;6.88;;;2.60;;
29384;SDS011;16367;48.736;9.218;2023-05-18T06:09:00;8.80;;;2.78;;
29384;SDS011;16367;48.736;9.218;2023-05-18T06:11:04;7.32;;;2.92;;
29384;SDS011;16367;48.736;9.218;2023-05-18T06:13:10;7.65;;;2.70;;
29384;SDS011;16367;48.736;9.218;2023-05-18T06:15:12;6.53;;;2.88;;
29384;SDS011;16367;48.736;9.218;2023-05-18T06:17:15;7.47;;;2.58;;
29384;SDS011;16367;48.736;9.218;2023-05-18T06:19:18;7.05;;;2.80;;
29384;SDS011;16367;48.736;9.218;2023-05-18T06:21:21;9.23;;;2.42;;
29384;SDS011;16367;48.736;9.218;2023-05-18T06:23:25;8.13;;;3.00;;
29384;SDS011;16367;48.736;9.218;2023-05-18T06:25:28;9.48;;;2.80;;
29384;SDS011;16367;48.736;9.218;2023-05-18T06:27:31;8.15;;;2.67;;
29384;SDS011;16367;48.736;9.218;2023-05-18T06:29:34;10.43;;;2.58;;
29384;SDS011;16367;48.736;9.218;2023-05-18T06:31:37;9.35;;;2.72;;
29384;SDS011;16367;48.736;9.218;2023-05-18T06:33:39;10.10;;;2.78;;
29384;SDS011;16367;48.736;9.218;2023-05-18T06:35:42;7.43;;;2.70;;
29384;SDS011;16367;48.736;9.218;2023-05-18T06:37:45;10.73;;;3.03;;
29384;SDS011;16367;48.736;9.218;2023-05-18T06:39:49;8.35;;;2.83;;
29384;SDS011;16367;48.736;9.218;2023-05-18T06:41:51;7.00;;;2.72;;
29384;SDS011;16367;48.736;9.218;2023-05-18T06:43:54;9.68;;;2.90;;
29384;SDS011;16367;48.736;9.218;2023-05-18T06:46:00;7.63;;;2.50;;
29384;SDS011;16367;48.736;9.218;2023-05-18T06:48:03;7.15;;;2.90;;
29384;SDS011;16367;48.736;9.218;2023-05-18T06:50:06;9.55;;;3.10;;
29384;SDS011;16367;48.736;9.218;2023-05-18T06:52:09;7.38;;;2.65;;
29384;SDS011;16367;48.736;9.218;2023-05-18T06:54:13;5.72;;;2.75;;
29384;SDS011;16367;48.736;9.218;2023-05-18T06:56:17;10.05;;;3.13;;
29384;SDS011;16367;48.736;9.218;2023-05-18T06:58:22;10.25;;;2.90;;
29384;SDS011;16367;48.736;9.218;2023-05-18T07:00:24;9.88;;;3.08;;
29384;SDS011;16367;48.736;9.218;2023-05-18T07:02:27;7.32;;;2.55;;
29384;SDS011;16367;48.736;9.218;2023-05-18T07:04:30;12.23;;;3.33;;
29384;SDS011;16367;48.736;9.218;2023-05-18T07:06:32;8.73;;;2.55;;
29384;SDS011;16367;48.736;9.218;2023-05-18T07:08:35;6.35;;;2.47;;
29384;SDS011;16367;48.736;9.218;2023-05-18T07:10:38;6.68;;;2.60;;
29384;SDS011;16367;48.736;9.218;2023-05-18T07:12:42;9.82;;;3.05;;
29384;SDS011;16367;48.736;9.218;2023-05-18T07:14:45;11.93;;;2.90;;
29384;SDS011;16367;48.736;9.218;2023-05-18T07:16:48;10.32;;;2.78;;
29384;SDS011;16367;48.736;9.218;2023-05-18T07:18:50;7.90;;;3.20;;
29384;SDS011;16367;48.736;9.218;2023-05-18T07:20:53;6.82;;;2.40;;
29384;SDS011;16367;48.736;9.218;2023-05-18T07:22:56;10.25;;;3.03;;
29384;SDS011;16367;48.736;9.218;2023-05-18T07:25:00;7.72;;;2.53;;
29384;SDS011;16367;48.736;9.218;2023-05-18T07:27:02;8.48;;;2.80;;
29384;SDS011;16367;48.736;9.218;2023-05-18T07:29:07;8.57;;;2.90;;
29384;SDS011;16367;48.736;9.218;2023-05-18T07:31:10;6.72;;;2.60;;
29384;SDS011;16367;48.736;9.218;2023-05-18T07:33:14;8.50;;;3.47;;
29384;SDS011;16367;48.736;9.218;2023-05-18T07:35:17;7.85;;;3.03;;
29384;SDS011;16367;48.736;9.218;2023-05-18T07:37:21;7.07;;;3.00;;
29384;SDS011;16367;48.736;9.218;2023-05-18T07:39:24;8.68;;;3.03;;
29384;SDS011;16367;48.736;9.218;2023-05-18T07:41:29;6.65;;;2.80;;
29384;SDS011;16367;48.736;9.218;2023-05-18T07:43:32;8.35;;;2.85;;
29384;SDS011;16367;48.736;9.218;2023-05-18T07:45:36;9.65;;;3.60;;
29384;SDS011;16367;48.736;9.218;2023-05-18T07:47:39;8.98;;;2.78;;
29384;SDS011;16367;48.736;9.218;2023-05-18T07:49:42;8.45;;;3.35;;
29384;SDS011;16367;48.736;9.218;2023-05-18T07:51:44;11.38;;;3.70;;
29384;SDS011;16367;48.736;9.218;2023-05-18T07:53:47;6.38;;;2.70;;
29384;SDS011;16367;48.736;9.218;2023-05-18T07:55:50;7.90;;;2.90;;
29384;SDS011;16367;48.736;9.218;2023-05-18T07:57:52;6.32;;;2.53;;
29384;SDS011;16367;48.736;9.218;2023-05-18T07:59:55;7.15;;;3.28;;
29384;SDS011;16367;48.736;9.218;2023-05-18T08:01:59;10.65;;;3.30;;
29384;SDS011;16367;48.736;9.218;2023-05-18T08:04:02;9.55;;;2.67;;
29384;SDS011;16367;48.736;9.218;2023-05-18T08:06:05;7.60;;;2.85;;
29384;SDS011;16367;48.736;9.218;2023-05-18T08:08:08;7.88;;;2.63;;
29384;SDS011;16367;48.736;9.218;2023-05-18T08:10:12;10.88;;;3.53;;
29384;SDS011;16367;48.736;9.218;2023-05-18T08:12:14;8.65;;;3.28;;
29384;SDS011;16367;48.736;9.218;2023-05-18T08:14:17;9.25;;;3.30;;
29384;SDS011;16367;48.736;9.218;2023-05-18T08:16:20;5.80;;;2.92;;
29384;SDS011;16367;48.736;9.218;2023-05-18T08:18:24;8.27;;;3.60;;
29384;SDS011;16367;48.736;9.218;2023-05-18T08:20:28;7.43;;;3.03;;
29384;SDS011;16367;48.736;9.218;2023-05-18T08:22:30;7.65;;;3.20;;
29384;SDS011;16367;48.736;9.218;2023-05-18T08:24:33;10.02;;;3.35;;
29384;SDS011;16367;48.736;9.218;2023-05-18T08:26:36;7.70;;;3.30;;
29384;SDS011;16367;48.736;9.218;2023-05-18T08:28:38;9.07;;;3.10;;
29384;SDS011;16367;48.736;9.218;2023-05-18T08:30:42;8.55;;;3.17;;
29384;SDS011;16367;48.736;9.218;2023-05-18T08:32:44;10.25;;;3.40;;
29384;SDS011;16367;48.736;9.218;2023-05-18T08:34:48;9.88;;;3.47;;
29384;SDS011;16367;48.736;9.218;2023-05-18T08:36:51;8.60;;;3.00;;
29384;SDS011;16367;48.736;9.218;2023-05-18T08:38:54;11.70;;;3.20;;
29384;SDS011;16367;48.736;9.218;2023-05-18T08:40:58;8.32;;;3.08;;
29384;SDS011;16367;48.736;9.218;2023-05-18T08:43:10;7.28;;;3.00;;
29384;SDS011;16367;48.736;9.218;2023-05-18T08:45:20;8.07;;;3.55;;
29384;SDS011;16367;48.736;9.218;2023-05-18T08:47:29;9.05;;;3.33;;
29384;SDS011;16367;48.736;9.218;2023-05-18T08:49:32;9.40;;;3.58;;
29384;SDS011;16367;48.736;9.218;2023-05-18T08:51:37;8.20;;;2.75;;
29384;SDS011;16367;48.736;9.218;2023-05-18T08:53:43;7.25;;;2.55;;
29384;SDS011;16367;48.736;9.218;2023-05-18T08:55:51;10.60;;;3.25;;
29384;SDS011;16367;48.736;9.218;2023-05-18T08:57:56;8.55;;;3.17;;
29384;SDS011;16367;48.736;9.218;2023-05-18T09:00:00;10.15;;;2.80;;
29384;SDS011;16367;48.736;9.218;2023-05-18T09:02:05;6.30;;;2.75;;
29384;SDS011;16367;48.736;9.218;2023-05-18T09:04:08;7.65;;;3.22;;
29384;SDS011;16367;48.736;9.218;2023-05-18T09:06:12;9.52;;;3.10;;
29384;SDS011;16367;48.736;9.218;2023-05-18T09:08:17;9.95;;;2.53;;
29384;SDS011;16367;48.736;9.218;2023-05-18T09:10:20;9.50;;;2.95;;
29384;SDS011;16367;48.736;9.218;2023-05-18T09:12:25;11.88;;;3.13;;
29384;SDS011;16367;48.736;9.218;2023-05-18T09:14:30;10.75;;;3.00;;
29384;SDS011;16367;48.736;9.218;2023-05-18T09:16:33;9.40;;;2.92;;
29384;SDS011;16367;48.736;9.218;2023-05-18T09:18:36;9.23;;;3.28;;
29384;SDS011;16367;48.736;9.218;2023-05-18T09:20:39;7.10;;;2.83;;
29384;SDS011;16367;48.736;9.218;2023-05-18T09:22:41;6.55;;;2.47;;
29384;SDS011;16367;48.736;9.218;2023-05-18T09:24:46;9.57;;;2.72;;
29384;SDS011;16367;48.736;9.218;2023-05-18T09:26:50;7.95;;;3.30;;
29384;SDS011;16367;48.736;9.218;2023-05-18T09:28:53;9.82;;;2.80;;
29384;SDS011;16367;48.736;9.218;2023-05-18T09:30:56;7.25;;;2.67;;
29384;SDS011;16367;48.736;9.218;2023-05-18T09:32:58;7.05;;;2.83;;
29384;SDS011;16367;48.736;9.218;2023-05-18T09:35:05;9.80;;;2.85;;
29384;SDS011;16367;48.736;9.218;2023-05-18T09:37:08;7.47;;;2.63;;
29384;SDS011;16367;48.736;9.218;2023-05-18T09:39:11;8.00;;;2.90;;
29384;SDS011;16367;48.736;9.218;2023-05-18T09:41:16;5.43;;;2.50;;
29384;SDS011;16367;48.736;9.218;2023-05-18T09:43:19;7.22;;;3.10;;
29384;SDS011;16367;48.736;9.218;2023-05-18T09:45:22;7.45;;;3.17;;
29384;SDS011;16367;48.736;9.218;2023-05-18T09:47:26;9.13;;;3.17;;
29384;SDS011;16367;48.736;9.218;2023-05-18T09:49:29;8.38;;;2.97;;
29384;SDS011;16367;48.736;9.218;2023-05-18T09:51:35;8.25;;;2.70;;
29384;SDS011;16367;48.736;9.218;2023-05-18T09:53:38;8.63;;;2.67;;
29384;SDS011;16367;48.736;9.218;2023-05-18T09:55:45;9.73;;;3.08;;
29384;SDS011;16367;48.736;9.218;2023-05-18T09:57:51;6.80;;;2.45;;
29384;SDS011;16367;48.736;9.218;2023-05-18T09:59:54;7.25;;;2.65;;
29384;SDS011;16367;48.736;9.218;2023-05-18T10:01:58;7.68;;;2.80;;
29384;SDS011;16367;48.736;9.218;2023-05-18T10:04:02;8.82;;;3.20;;
29384;SDS011;16367;48.736;9.218;2023-05-18T10:06:07;7.38;;;3.17;;
29384;SDS011;16367;48.736;9.218;2023-05-18T10:08:11;6.53;;;2.95;;
29384;SDS011;16367;48.736;9.218;2023-05-18T10:10:16;7.57;;;2.90;;
29384;SDS011;16367;48.736;9.218;2023-05-18T10:12:21;7.53;;;2.63;;
29384;SDS011;16367;48.736;9.218;2023-05-18T10:14:26;7.97;;;2.35;;
29384;SDS011;16367;48.736;9.218;2023-05-18T10:16:33;6.75;;;2.72;;
29384;SDS011;16367;48.736;9.218;2023-05-18T10:18:36;8.75;;;2.78;;
29384;SDS011;16367;48.736;9.218;2023-05-18T10:20:40;8.45;;;2.75;;
29384;SDS011;16367;48.736;9.218;2023-05-18T10:22:45;8.35;;;2.50;;
29384;SDS011;16367;48.736;9.218;2023-05-18T10:24:49;8.13;;;2.72;;
29384;SDS011;16367;48.736;9.218;2023-05-18T10:26:53;5.50;;;2.47;;
29384;SDS011;16367;48.736;9.218;2023-05-18T10:29:01;8.07;;;3.05;;
29384;SDS011;16367;48.736;9.218;2023-05-18T10:31:07;12.48;;;3.25;;
29384;SDS011;16367;48.736;9.218;2023-05-18T10:33:10;8.18;;;2.85;;
29384;SDS011;16367;48.736;9.218;2023-05-18T10:35:28;8.98;;;2.58;;
29384;SDS011;16367;48.736;9.218;2023-05-18T10:37:32;8.88;;;2.75;;
29384;SDS011;16367;48.736;9.218;2023-05-18T10:39:37;9.23;;;2.60;;
29384;SDS011;16367;48.736;9.218;2023-05-18T10:41:41;8.07;;;3.08;;
29384;SDS011;16367;48.736;9.218;2023-05-18T10:43:45;8.35;;;2.95;;
29384;SDS011;16367;48.736;9.218;2023-05-18T10:45:50;8.27;;;2.33;;
29384;SDS011;16367;48.736;9.218;2023-05-18T10:47:56;6.93;;;2.90;;
29384;SDS011;16367;48.736;9.218;2023-05-18T10:50:02;10.32;;;2.85;;
29384;SDS011;16367;48.736;9.218;2023-05-18T10:52:06;9.25;;;2.83;;
29384;SDS011;16367;48.736;9.218;2023-05-18T10:54:11;8.13;;;2.85;;
29384;SDS011;16367;48.736;9.218;2023-05-18T10:56:14;9.05;;;2.65;;
29384;SDS011;16367;48.736;9.218;2023-05-18T10:58:18;9.07;;;3.13;;
29384;SDS011;16367;48.736;9.218;2023-05-18T11:00:22;11.48;;;3.15;;
29384;SDS011;16367;48.736;9.218;2023-05-18T11:02:25;10.93;;;2.85;;
29384;SDS011;16367;48.736;9.218;2023-05-18T11:04:30;8.07;;;2.40;;
29384;SDS011;16367;48.736;9.218;2023-05-18T11:06:33;7.35;;;2.63;;
29384;SDS011;16367;48.736;9.218;2023-05-18T11:08:43;7.32;;;2.90;;
29384;SDS011;16367;48.736;9.218;2023-05-18T11:13:00;10.45;;;2.83;;
29384;SDS011;16367;48.736;9.218;2023-05-18T11:15:03;7.75;;;2.50;;
29384;SDS011;16367;48.736;9.218;2023-05-18T11:17:16;6.80;;;2.55;;
29384;SDS011;16367;48.736;9.218;2023-05-18T11:19:23;7.07;;;2.65;;
29384;SDS011;16367;48.736;9.218;2023-05-18T11:26:16;7.65;;;2.50;;
29384;SDS011;16367;48.736;9.218;2023-05-18T11:28:18;6.78;;;2.28;;
29384;SDS011;16367;48.736;9.218;2023-05-18T11:30:27;6.15;;;2.33;;
29384;SDS011;16367;48.736;9.218;2023-05-18T11:32:31;7.78;;;2.58;;
29384;SDS011;16367;48.736;9.218;2023-05-18T11:39:02;9.10;;;2.25;;
29384;SDS011;16367;48.736;9.218;2023-05-18T11:41:07;7.80;;;3.45;;
29384;SDS011;16367;48.736;9.218;2023-05-18T11:43:28;6.25;;;1.98;;
29384;SDS011;16367;48.736;9.218;2023-05-18T11:45:31;7.93;;;2.40;;
29384;SDS011;16367;48.736;9.218;2023-05-18T11:47:35;7.72;;;2.70;;
29384;SDS011;16367;48.736;9.218;2023-05-18T11:49:41;8.95;;;2.50;;
29384;SDS011;16367;48.736;9.218;2023-05-18T11:51:55;7.13;;;2.53;;
29384;SDS011;16367;48.736;9.218;2023-05-18T11:54:06;6.90;;;2.80;;
29384;SDS011;16367;48.736;9.218;2023-05-18T11:56:10;8.68;;;2.67;;
29384;SDS011;16367;48.736;9.218;2023-05-18T11:58:14;7.47;;;2.42;;
29384;SDS011;16367;48.736;9.218;2023-05-18T12:02:25;6.45;;;2.17;;
29384;SDS011;16367;48.736;9.218;2023-05-18T12:04:32;6.50;;;2.28;;
29384;SDS011;16367;48.736;9.218;2023-05-18T12:06:36;6.60;;;2.40;;
29384;SDS011;16367;48.736;9.218;2023-05-18T12:08:39;5.75;;;2.13;;
29384;SDS011;16367;48.736;9.218;2023-05-18T12:10:45;5.53;;;2.30;;
29384;SDS011;16367;48.736;9.218;2023-05-18T12:12:49;7.22;;;2.20;;
29384;SDS011;16367;48.736;9.218;2023-05-18T12:14:54;6.60;;;2.38;;
29384;SDS011;16367;48.736;9.218;2023-05-18T12:16:58;7.78;;;2.20;;
29384;SDS011;16367;48.736;9.218;2023-05-18T12:19:01;5.65;;;1.70;;
29384;SDS011;16367;48.736;9.218;2023-05-18T12:21:04;6.28;;;2.40;;
29384;SDS011;16367;48.736;9.218;2023-05-18T12:23:07;8.18;;;2.20;;
29384;SDS011;16367;48.736;9.218;2023-05-18T12:25:10;5.20;;;2.00;;
29384;SDS011;16367;48.736;9.218;2023-05-18T12:27:14;6.65;;;2.03;;
29384;SDS011;16367;48.736;9.218;2023-05-18T12:29:17;5.90;;;2.15;;
29384;SDS011;16367;48.736;9.218;2023-05-18T12:31:23;5.85;;;2.10;;
29384;SDS011;16367;48.736;9.218;2023-05-18T12:33:26;5.47;;;2.17;;
29384;SDS011;16367;48.736;9.218;2023-05-18T12:35:29;8.85;;;3.05;;
29384;SDS011;16367;48.736;9.218;2023-05-18T12:37:39;6.53;;;2.20;;
29384;SDS011;16367;48.736;9.218;2023-05-18T12:39:50;5.10;;;1.80;;